sensor_id;sensor_type;location;lat;lon;timestamp;pressure;altitude;pressure_sealevel;temperature;humidity
10668;BME280;5382;42.136;24.796;2023-03-14T00:02:17;100403.09;;;5.39;92.47
10668;BME280;5382;42.136;24.796;2023-03-14T00:04:43;100410.19;;;5.37;92.62
10668;BME280;5382;42.136;24.796;2023-03-14T00:07:10;100401.13;;;5.44;92.07
10668;BME280;5382;42.136;24.796;2023-03-14T00:09:38;100400.03;;;5.50;91.72
10668;BME280;5382;42.136;24.796;2023-03-14T00:12:05;100401.66;;;5.32;95.47
10668;BME280;5382;42.136;24.796;2023-03-14T00:14:33;100399.34;;;5.24;98.11
10668;BME280;5382;42.136;24.796;2023-03-14T00:17:01;100367.06;;;5.02;99.19
10668;BME280;5382;42.136;24.796;2023-03-14T00:19:30;100373.78;;;4.87;99.18
10668;BME280;5382;42.136;24.796;2023-03-14T00:21:57;100380.13;;;4.81;100.00
10668;BME280;5382;42.136;24.796;2023-03-14T00:24:24;100379.19;;;4.62;100.00
10668;BME280;5382;42.136;24.796;2023-03-14T00:26:51;100359.97;;;4.40;100.00
10668;BME280;5382;42.136;24.796;2023-03-14T00:29:17;100340.94;;;4.34;100.00
10668;BME280;5382;42.136;24.796;2023-03-14T00:31:44;100376.41;;;4.43;100.00
10668;BME280;5382;42.136;24.796;2023-03-14T00:34:12;100367.22;;;4.55;100.00
10668;BME280;5382;42.136;24.796;2023-03-14T00:36:39;100368.41;;;4.46;100.00
10668;BME280;5382;42.136;24.796;2023-03-14T00:39:06;100361.00;;;4.57;100.00
10668;BME280;5382;42.136;24.796;2023-03-14T00:41:33;100367.56;;;4.46;100.00
10668;BME280;5382;42.136;24.796;2023-03-14T00:43:59;100357.03;;;4.47;100.00
10668;BME280;5382;42.136;24.796;2023-03-14T00:46:26;100314.91;;;4.30;100.00
10668;BME280;5382;42.136;24.796;2023-03-14T00:48:53;100347.59;;;4.65;100.00
10668;BME280;5382;42.136;24.796;2023-03-14T00:51:21;100350.19;;;4.43;100.00
10668;BME280;5382;42.136;24.796;2023-03-14T00:53:48;100289.59;;;4.08;100.00
10668;BME280;5382;42.136;24.796;2023-03-14T00:56:15;100349.22;;;4.46;100.00
10668;BME280;5382;42.136;24.796;2023-03-14T00:58:42;100338.06;;;4.41;100.00
10668;BME280;5382;42.136;24.796;2023-03-14T01:01:11;100336.38;;;4.40;100.00
10668;BME280;5382;42.136;24.796;2023-03-14T01:03:39;100339.66;;;4.45;100.00
10668;BME280;5382;42.136;24.796;2023-03-14T01:06:07;100332.13;;;4.37;100.00
10668;BME280;5382;42.136;24.796;2023-03-14T01:08:36;100326.63;;;4.43;100.00
10668;BME280;5382;42.136;24.796;2023-03-14T01:11:06;100328.44;;;4.41;100.00
10668;BME280;5382;42.136;24.796;2023-03-14T01:13:33;100321.03;;;4.52;100.00
10668;BME280;5382;42.136;24.796;2023-03-14T01:16:01;100323.28;;;4.40;100.00
10668;BME280;5382;42.136;24.796;2023-03-14T01:18:29;100326.41;;;4.49;100.00
10668;BME280;5382;42.136;24.796;2023-03-14T01:20:56;100267.94;;;4.25;100.00
10668;BME280;5382;42.136;24.796;2023-03-14T01:23:23;100243.22;;;4.10;100.00
10668;BME280;5382;42.136;24.796;2023-03-14T01:25:51;100273.72;;;4.33;100.00
10668;BME280;5382;42.136;24.796;2023-03-14T01:28:18;100295.84;;;4.48;100.00
10668;BME280;5382;42.136;24.796;2023-03-14T01:30:45;100299.44;;;4.46;100.00
10668;BME280;5382;42.136;24.796;2023-03-14T01:33:11;100296.50;;;4.53;100.00
10668;BME280;5382;42.136;24.796;2023-03-14T01:35:40;100241.09;;;3.98;100.00
10668;BME280;5382;42.136;24.796;2023-03-14T01:38:07;100304.81;;;4.65;100.00
10668;BME280;5382;42.136;24.796;2023-03-14T01:40:33;100300.88;;;4.75;100.00
10668;BME280;5382;42.136;24.796;2023-03-14T01:43:14;100307.66;;;4.58;100.00
10668;BME280;5382;42.136;24.796;2023-03-14T01:46:17;100280.16;;;4.69;100.00
10668;BME280;5382;42.136;24.796;2023-03-14T01:48:50;100305.94;;;4.79;100.00
10668;BME280;5382;42.136;24.796;2023-03-14T01:51:23;100299.16;;;4.74;100.00
10668;BME280;5382;42.136;24.796;2023-03-14T01:53:52;100299.78;;;4.80;100.00
10668;BME280;5382;42.136;24.796;2023-03-14T01:56:21;100284.91;;;4.81;100.00
10668;BME280;5382;42.136;24.796;2023-03-14T01:58:51;100292.47;;;4.67;100.00
10668;BME280;5382;42.136;24.796;2023-03-14T02:01:20;100272.03;;;4.54;100.00
10668;BME280;5382;42.136;24.796;2023-03-14T02:03:51;100285.28;;;4.72;100.00
10668;BME280;5382;42.136;24.796;2023-03-14T02:06:21;100286.84;;;4.76;100.00
10668;BME280;5382;42.136;24.796;2023-03-14T02:08:50;100286.13;;;4.52;100.00
10668;BME280;5382;42.136;24.796;2023-03-14T02:11:17;100279.09;;;4.52;100.00
10668;BME280;5382;42.136;24.796;2023-03-14T02:13:45;100287.41;;;4.42;100.00
10668;BME280;5382;42.136;24.796;2023-03-14T02:16:13;100289.81;;;4.46;100.00
10668;BME280;5382;42.136;24.796;2023-03-14T02:18:40;100285.97;;;4.33;100.00
10668;BME280;5382;42.136;24.796;2023-03-14T02:21:13;100286.47;;;4.43;100.00
10668;BME280;5382;42.136;24.796;2023-03-14T02:23:50;100278.47;;;4.46;100.00
10668;BME280;5382;42.136;24.796;2023-03-14T02:26:22;100271.69;;;4.42;100.00
10668;BME280;5382;42.136;24.796;2023-03-14T02:28:52;100280.38;;;4.42;100.00
10668;BME280;5382;42.136;24.796;2023-03-14T02:31:20;100272.16;;;4.29;100.00
10668;BME280;5382;42.136;24.796;2023-03-14T02:33:49;100279.19;;;4.29;100.00
10668;BME280;5382;42.136;24.796;2023-03-14T02:36:17;100279.34;;;4.24;100.00
10668;BME280;5382;42.136;24.796;2023-03-14T02:38:49;100272.47;;;4.22;100.00
10668;BME280;5382;42.136;24.796;2023-03-14T02:41:17;100284.25;;;4.10;100.00
10668;BME280;5382;42.136;24.796;2023-03-14T02:43:44;100247.59;;;3.88;100.00
10668;BME280;5382;42.136;24.796;2023-03-14T02:46:14;100276.16;;;3.94;100.00
10668;BME280;5382;42.136;24.796;2023-03-14T02:48:46;100280.09;;;3.82;100.00
10668;BME280;5382;42.136;24.796;2023-03-14T02:51:15;100291.34;;;3.84;100.00
10668;BME280;5382;42.136;24.796;2023-03-14T02:53:42;100294.22;;;3.78;100.00
10668;BME280;5382;42.136;24.796;2023-03-14T02:56:09;100292.22;;;3.85;100.00
10668;BME280;5382;42.136;24.796;2023-03-14T02:58:36;100289.91;;;3.77;100.00
10668;BME280;5382;42.136;24.796;2023-03-14T03:01:04;100293.25;;;3.81;100.00
10668;BME280;5382;42.136;24.796;2023-03-14T03:03:32;100289.94;;;3.76;100.00
10668;BME280;5382;42.136;24.796;2023-03-14T03:05:59;100299.19;;;3.84;100.00
10668;BME280;5382;42.136;24.796;2023-03-14T03:08:26;100297.69;;;3.79;100.00
10668;BME280;5382;42.136;24.796;2023-03-14T03:10:54;100282.13;;;3.74;100.00
10668;BME280;5382;42.136;24.796;2023-03-14T03:13:21;100294.16;;;3.80;100.00
10668;BME280;5382;42.136;24.796;2023-03-14T03:15:48;100297.91;;;3.72;100.00
10668;BME280;5382;42.136;24.796;2023-03-14T03:18:15;100272.25;;;3.59;100.00
10668;BME280;5382;42.136;24.796;2023-03-14T03:20:44;100302.56;;;3.88;100.00
10668;BME280;5382;42.136;24.796;2023-03-14T03:23:12;100307.94;;;3.85;100.00
10668;BME280;5382;42.136;24.796;2023-03-14T03:25:39;100302.19;;;3.75;100.00
10668;BME280;5382;42.136;24.796;2023-03-14T03:28:06;100299.56;;;3.75;100.00
10668;BME280;5382;42.136;24.796;2023-03-14T03:30:35;100294.44;;;3.72;100.00
10668;BME280;5382;42.136;24.796;2023-03-14T03:33:03;100280.84;;;3.62;100.00
10668;BME280;5382;42.136;24.796;2023-03-14T03:35:30;100286.66;;;3.70;100.00
10668;BME280;5382;42.136;24.796;2023-03-14T03:37:58;100290.34;;;3.65;100.00
10668;BME280;5382;42.136;24.796;2023-03-14T03:40:25;100288.88;;;3.58;100.00
10668;BME280;5382;42.136;24.796;2023-03-14T03:42:51;100292.88;;;3.66;100.00
10668;BME280;5382;42.136;24.796;2023-03-14T03:45:18;100297.34;;;3.64;100.00
10668;BME280;5382;42.136;24.796;2023-03-14T03:47:45;100293.97;;;3.61;100.00
10668;BME280;5382;42.136;24.796;2023-03-14T03:50:12;100254.94;;;3.08;100.00
10668;BME280;5382;42.136;24.796;2023-03-14T03:52:39;100293.38;;;3.29;100.00
10668;BME280;5382;42.136;24.796;2023-03-14T03:55:08;100275.72;;;2.86;100.00
10668;BME280;5382;42.136;24.796;2023-03-14T03:57:35;100294.97;;;2.83;100.00
10668;BME280;5382;42.136;24.796;2023-03-14T04:00:03;100300.09;;;2.86;100.00
10668;BME280;5382;42.136;24.796;2023-03-14T04:02:30;100253.47;;;2.21;100.00
10668;BME280;5382;42.136;24.796;2023-03-14T04:04:57;100278.34;;;2.32;100.00
10668;BME280;5382;42.136;24.796;2023-03-14T04:07:24;100292.69;;;2.19;100.00
10668;BME280;5382;42.136;24.796;2023-03-14T04:09:51;100294.09;;;2.01;100.00
10668;BME280;5382;42.136;24.796;2023-03-14T04:12:19;100274.00;;;1.75;100.00
10668;BME280;5382;42.136;24.796;2023-03-14T04:14:46;100280.22;;;1.71;100.00
10668;BME280;5382;42.136;24.796;2023-03-14T04:17:13;100282.13;;;1.66;100.00
10668;BME280;5382;42.136;24.796;2023-03-14T04:19:40;100281.91;;;1.73;100.00
10668;BME280;5382;42.136;24.796;2023-03-14T04:22:07;100186.03;;;1.22;100.00
10668;BME280;5382;42.136;24.796;2023-03-14T04:24:34;100192.22;;;1.18;100.00
10668;BME280;5382;42.136;24.796;2023-03-14T04:27:01;100227.28;;;1.38;100.00
10668;BME280;5382;42.136;24.796;2023-03-14T04:29:29;100276.13;;;1.62;100.00
10668;BME280;5382;42.136;24.796;2023-03-14T04:31:56;100193.22;;;1.14;100.00
10668;BME280;5382;42.136;24.796;2023-03-14T04:34:23;100273.28;;;1.70;100.00
10668;BME280;5382;42.136;24.796;2023-03-14T04:36:49;100275.97;;;1.68;100.00
10668;BME280;5382;42.136;24.796;2023-03-14T04:39:16;100272.22;;;1.77;100.00
10668;BME280;5382;42.136;24.796;2023-03-14T04:41:44;100277.06;;;1.89;100.00
10668;BME280;5382;42.136;24.796;2023-03-14T04:44:11;100272.97;;;2.09;100.00
10668;BME280;5382;42.136;24.796;2023-03-14T04:46:39;100271.72;;;2.22;100.00
10668;BME280;5382;42.136;24.796;2023-03-14T04:49:06;100273.38;;;2.25;100.00
10668;BME280;5382;42.136;24.796;2023-03-14T04:51:33;100278.41;;;2.31;100.00
10668;BME280;5382;42.136;24.796;2023-03-14T04:54:00;100281.38;;;2.47;100.00
10668;BME280;5382;42.136;24.796;2023-03-14T04:56:27;100279.31;;;2.56;100.00
10668;BME280;5382;42.136;24.796;2023-03-14T04:58:54;100279.56;;;2.49;100.00
10668;BME280;5382;42.136;24.796;2023-03-14T05:01:21;100280.75;;;2.38;100.00
10668;BME280;5382;42.136;24.796;2023-03-14T05:03:50;100250.84;;;2.22;100.00
10668;BME280;5382;42.136;24.796;2023-03-14T05:06:16;100281.75;;;2.34;100.00
10668;BME280;5382;42.136;24.796;2023-03-14T05:08:43;100246.00;;;2.10;100.00
10668;BME280;5382;42.136;24.796;2023-03-14T05:11:10;100249.22;;;2.18;100.00
10668;BME280;5382;42.136;24.796;2023-03-14T05:13:38;100289.44;;;2.39;100.00
10668;BME280;5382;42.136;24.796;2023-03-14T05:16:06;100238.19;;;2.08;100.00
10668;BME280;5382;42.136;24.796;2023-03-14T05:18:33;100293.81;;;2.38;100.00
10668;BME280;5382;42.136;24.796;2023-03-14T05:21:02;100240.16;;;2.02;100.00
10668;BME280;5382;42.136;24.796;2023-03-14T05:23:29;100291.31;;;2.35;100.00
10668;BME280;5382;42.136;24.796;2023-03-14T05:25:56;100289.50;;;2.64;100.00
10668;BME280;5382;42.136;24.796;2023-03-14T05:28:23;100250.25;;;2.40;100.00
10668;BME280;5382;42.136;24.796;2023-03-14T05:30:50;100302.09;;;2.78;100.00
10668;BME280;5382;42.136;24.796;2023-03-14T05:33:17;100299.13;;;2.89;100.00
10668;BME280;5382;42.136;24.796;2023-03-14T05:35:44;100300.59;;;2.97;100.00
10668;BME280;5382;42.136;24.796;2023-03-14T05:38:12;100303.38;;;2.93;100.00
10668;BME280;5382;42.136;24.796;2023-03-14T05:40:39;100287.56;;;2.96;100.00
10668;BME280;5382;42.136;24.796;2023-03-14T05:43:05;100300.06;;;3.13;100.00
10668;BME280;5382;42.136;24.796;2023-03-14T05:45:34;100300.00;;;3.14;100.00
10668;BME280;5382;42.136;24.796;2023-03-14T05:48:01;100295.31;;;3.24;100.00
10668;BME280;5382;42.136;24.796;2023-03-14T05:50:28;100227.28;;;3.00;100.00
10668;BME280;5382;42.136;24.796;2023-03-14T05:52:55;100286.53;;;3.50;100.00
10668;BME280;5382;42.136;24.796;2023-03-14T05:55:23;100253.84;;;3.38;100.00
10668;BME280;5382;42.136;24.796;2023-03-14T05:57:50;100281.56;;;3.66;100.00
10668;BME280;5382;42.136;24.796;2023-03-14T06:00:18;100283.06;;;3.73;100.00
10668;BME280;5382;42.136;24.796;2023-03-14T06:02:44;100294.66;;;3.89;100.00
10668;BME280;5382;42.136;24.796;2023-03-14T06:05:12;100296.94;;;3.99;100.00
10668;BME280;5382;42.136;24.796;2023-03-14T06:07:39;100297.56;;;4.05;100.00
10668;BME280;5382;42.136;24.796;2023-03-14T06:10:06;100291.91;;;4.16;100.00
10668;BME280;5382;42.136;24.796;2023-03-14T06:12:35;100286.16;;;4.28;100.00
10668;BME280;5382;42.136;24.796;2023-03-14T06:15:03;100291.16;;;4.34;100.00
10668;BME280;5382;42.136;24.796;2023-03-14T06:17:29;100238.91;;;4.09;100.00
10668;BME280;5382;42.136;24.796;2023-03-14T06:19:56;100296.16;;;4.41;100.00
10668;BME280;5382;42.136;24.796;2023-03-14T06:22:23;100280.19;;;4.47;100.00
10668;BME280;5382;42.136;24.796;2023-03-14T06:24:50;100274.88;;;4.48;100.00
10668;BME280;5382;42.136;24.796;2023-03-14T06:27:16;100278.34;;;4.49;100.00
10668;BME280;5382;42.136;24.796;2023-03-14T06:29:45;100258.97;;;4.53;100.00
10668;BME280;5382;42.136;24.796;2023-03-14T06:32:11;100253.16;;;4.67;100.00
10668;BME280;5382;42.136;24.796;2023-03-14T06:34:38;100269.69;;;4.89;100.00
10668;BME280;5382;42.136;24.796;2023-03-14T06:37:06;100269.84;;;4.86;100.00
10668;BME280;5382;42.136;24.796;2023-03-14T06:39:33;100271.06;;;4.98;100.00
10668;BME280;5382;42.136;24.796;2023-03-14T06:42:00;100280.19;;;4.89;100.00
10668;BME280;5382;42.136;24.796;2023-03-14T06:44:27;100278.50;;;5.09;100.00
10668;BME280;5382;42.136;24.796;2023-03-14T06:46:55;100281.69;;;5.15;100.00
10668;BME280;5382;42.136;24.796;2023-03-14T06:49:22;100280.31;;;5.07;100.00
10668;BME280;5382;42.136;24.796;2023-03-14T06:51:49;100282.63;;;5.14;100.00
10668;BME280;5382;42.136;24.796;2023-03-14T06:54:15;100276.91;;;5.25;100.00
10668;BME280;5382;42.136;24.796;2023-03-14T06:56:42;100273.94;;;5.33;100.00
10668;BME280;5382;42.136;24.796;2023-03-14T06:59:09;100269.41;;;5.36;100.00
10668;BME280;5382;42.136;24.796;2023-03-14T07:01:36;100265.31;;;5.29;100.00
10668;BME280;5382;42.136;24.796;2023-03-14T07:04:05;100263.75;;;5.06;100.00
10668;BME280;5382;42.136;24.796;2023-03-14T07:06:33;100255.06;;;5.04;100.00
10668;BME280;5382;42.136;24.796;2023-03-14T07:08:59;100257.91;;;4.99;100.00
10668;BME280;5382;42.136;24.796;2023-03-14T07:11:26;100255.00;;;5.06;100.00
10668;BME280;5382;42.136;24.796;2023-03-14T07:13:53;100246.47;;;5.00;100.00
10668;BME280;5382;42.136;24.796;2023-03-14T07:16:20;100242.31;;;4.96;100.00
10668;BME280;5382;42.136;24.796;2023-03-14T07:18:48;100232.19;;;5.08;100.00
10668;BME280;5382;42.136;24.796;2023-03-14T07:21:17;100241.59;;;5.32;100.00
10668;BME280;5382;42.136;24.796;2023-03-14T07:23:43;100229.63;;;5.45;100.00
10668;BME280;5382;42.136;24.796;2023-03-14T07:26:10;100230.91;;;5.56;100.00
10668;BME280;5382;42.136;24.796;2023-03-14T07:28:37;100201.31;;;5.33;100.00
10668;BME280;5382;42.136;24.796;2023-03-14T07:31:04;100224.47;;;5.63;100.00
10668;BME280;5382;42.136;24.796;2023-03-14T07:33:31;100193.03;;;5.61;100.00
10668;BME280;5382;42.136;24.796;2023-03-14T07:35:58;100213.84;;;5.83;100.00
10668;BME280;5382;42.136;24.796;2023-03-14T07:38:27;100226.56;;;5.93;100.00
10668;BME280;5382;42.136;24.796;2023-03-14T07:40:58;100228.66;;;6.05;100.00
10668;BME280;5382;42.136;24.796;2023-03-14T07:43:25;100217.50;;;6.00;100.00
10668;BME280;5382;42.136;24.796;2023-03-14T07:45:52;100222.94;;;6.14;100.00
10668;BME280;5382;42.136;24.796;2023-03-14T07:48:19;100216.63;;;6.18;100.00
10668;BME280;5382;42.136;24.796;2023-03-14T07:50:48;100213.53;;;6.10;100.00
10668;BME280;5382;42.136;24.796;2023-03-14T07:53:15;100202.81;;;5.96;100.00
10668;BME280;5382;42.136;24.796;2023-03-14T07:55:43;100210.00;;;6.28;100.00
10668;BME280;5382;42.136;24.796;2023-03-14T07:58:10;100209.28;;;6.42;100.00
10668;BME280;5382;42.136;24.796;2023-03-14T08:00:37;100179.78;;;6.20;100.00
10668;BME280;5382;42.136;24.796;2023-03-14T08:03:04;100204.44;;;6.52;100.00
10668;BME280;5382;42.136;24.796;2023-03-14T08:05:32;100161.22;;;6.58;100.00
10668;BME280;5382;42.136;24.796;2023-03-14T08:08:00;100200.94;;;6.86;100.00
10668;BME280;5382;42.136;24.796;2023-03-14T08:10:27;100195.66;;;7.04;100.00
10668;BME280;5382;42.136;24.796;2023-03-14T08:12:57;100194.50;;;7.25;98.88
10668;BME280;5382;42.136;24.796;2023-03-14T08:15:24;100192.34;;;7.49;97.39
10668;BME280;5382;42.136;24.796;2023-03-14T08:17:51;100188.72;;;7.52;92.47
10668;BME280;5382;42.136;24.796;2023-03-14T08:20:19;100190.31;;;7.54;89.54
10668;BME280;5382;42.136;24.796;2023-03-14T08:22:46;100185.97;;;7.53;86.87
10668;BME280;5382;42.136;24.796;2023-03-14T08:25:14;100185.91;;;7.55;85.89
10668;BME280;5382;42.136;24.796;2023-03-14T08:27:41;100186.41;;;7.61;83.84
10668;BME280;5382;42.136;24.796;2023-03-14T08:30:11;100172.75;;;7.55;86.56
10668;BME280;5382;42.136;24.796;2023-03-14T08:32:38;100180.63;;;7.71;84.91
10668;BME280;5382;42.136;24.796;2023-03-14T08:35:05;100180.03;;;7.81;85.35
10668;BME280;5382;42.136;24.796;2023-03-14T08:37:33;100177.56;;;7.94;84.38
10668;BME280;5382;42.136;24.796;2023-03-14T08:40:00;100172.78;;;8.17;82.42
10668;BME280;5382;42.136;24.796;2023-03-14T08:42:31;100170.28;;;8.29;80.33
10668;BME280;5382;42.136;24.796;2023-03-14T08:44:58;100161.41;;;8.30;79.96
10668;BME280;5382;42.136;24.796;2023-03-14T08:47:26;100153.31;;;8.34;79.58
10668;BME280;5382;42.136;24.796;2023-03-14T08:49:54;100154.94;;;8.36;76.47
10668;BME280;5382;42.136;24.796;2023-03-14T08:52:20;100145.03;;;8.56;76.14
10668;BME280;5382;42.136;24.796;2023-03-14T08:54:47;100138.84;;;8.85;73.40
10668;BME280;5382;42.136;24.796;2023-03-14T08:57:14;100116.31;;;9.08;72.24
10668;BME280;5382;42.136;24.796;2023-03-14T08:59:41;100137.72;;;9.18;70.54
10668;BME280;5382;42.136;24.796;2023-03-14T09:02:09;100128.47;;;9.25;69.60
10668;BME280;5382;42.136;24.796;2023-03-14T09:04:38;100108.75;;;9.31;68.93
10668;BME280;5382;42.136;24.796;2023-03-14T09:07:05;100110.63;;;9.70;66.83
10668;BME280;5382;42.136;24.796;2023-03-14T09:09:32;100108.16;;;9.81;65.23
10668;BME280;5382;42.136;24.796;2023-03-14T09:11:59;100094.31;;;9.91;64.88
10668;BME280;5382;42.136;24.796;2023-03-14T09:14:25;100084.78;;;10.15;64.59
10668;BME280;5382;42.136;24.796;2023-03-14T09:16:52;100087.69;;;10.38;61.19
10668;BME280;5382;42.136;24.796;2023-03-14T09:19:19;100081.66;;;10.36;59.91
10668;BME280;5382;42.136;24.796;2023-03-14T09:21:47;100076.25;;;10.50;62.42
10668;BME280;5382;42.136;24.796;2023-03-14T09:24:14;100075.19;;;10.65;64.54
10668;BME280;5382;42.136;24.796;2023-03-14T09:26:41;100075.84;;;10.69;58.05
10668;BME280;5382;42.136;24.796;2023-03-14T09:29:08;100072.88;;;10.61;55.77
10668;BME280;5382;42.136;24.796;2023-03-14T09:31:35;100066.44;;;10.52;54.46
10668;BME280;5382;42.136;24.796;2023-03-14T09:34:01;100056.81;;;10.51;54.91
10668;BME280;5382;42.136;24.796;2023-03-14T09:36:28;100051.81;;;10.72;53.80
10668;BME280;5382;42.136;24.796;2023-03-14T09:38:56;100046.59;;;10.96;53.73
10668;BME280;5382;42.136;24.796;2023-03-14T09:41:25;100044.91;;;10.95;53.82
10668;BME280;5382;42.136;24.796;2023-03-14T09:43:58;100040.25;;;11.23;52.97
10668;BME280;5382;42.136;24.796;2023-03-14T09:46:27;100038.03;;;11.29;54.60
10668;BME280;5382;42.136;24.796;2023-03-14T09:48:55;100032.25;;;11.11;54.38
10668;BME280;5382;42.136;24.796;2023-03-14T09:51:21;100030.16;;;11.04;57.02
10668;BME280;5382;42.136;24.796;2023-03-14T09:53:50;100019.00;;;11.11;56.27
10668;BME280;5382;42.136;24.796;2023-03-14T09:56:19;100027.50;;;11.04;56.33
10668;BME280;5382;42.136;24.796;2023-03-14T09:58:50;100027.88;;;11.23;56.90
10668;BME280;5382;42.136;24.796;2023-03-14T10:01:22;100023.88;;;11.66;57.96
10668;BME280;5382;42.136;24.796;2023-03-14T10:03:49;100022.41;;;11.62;55.90
10668;BME280;5382;42.136;24.796;2023-03-14T10:06:21;100005.53;;;11.63;55.75
10668;BME280;5382;42.136;24.796;2023-03-14T10:08:50;100008.13;;;11.75;53.34
10668;BME280;5382;42.136;24.796;2023-03-14T10:11:19;100001.50;;;11.81;54.32
10668;BME280;5382;42.136;24.796;2023-03-14T10:13:49;99991.34;;;11.88;54.70
10668;BME280;5382;42.136;24.796;2023-03-14T10:16:16;99988.09;;;11.95;55.35
10668;BME280;5382;42.136;24.796;2023-03-14T10:18:45;99980.75;;;12.10;54.55
10668;BME280;5382;42.136;24.796;2023-03-14T10:21:28;99970.03;;;12.23;52.40
10668;BME280;5382;42.136;24.796;2023-03-14T10:24:07;99969.09;;;12.58;51.57
10668;BME280;5382;42.136;24.796;2023-03-14T10:26:36;99960.78;;;12.62;52.30
10668;BME280;5382;42.136;24.796;2023-03-14T10:29:04;99953.88;;;12.49;50.78
10668;BME280;5382;42.136;24.796;2023-03-14T10:31:47;99944.13;;;12.60;50.87
10668;BME280;5382;42.136;24.796;2023-03-14T10:34:17;99945.66;;;12.74;52.20
10668;BME280;5382;42.136;24.796;2023-03-14T10:36:52;99933.97;;;12.65;50.37
10668;BME280;5382;42.136;24.796;2023-03-14T10:39:26;99944.25;;;12.70;50.41
10668;BME280;5382;42.136;24.796;2023-03-14T10:42:02;99934.53;;;12.92;50.41
10668;BME280;5382;42.136;24.796;2023-03-14T10:44:30;99931.66;;;12.83;49.71
10668;BME280;5382;42.136;24.796;2023-03-14T10:47:00;99937.19;;;12.92;48.75
10668;BME280;5382;42.136;24.796;2023-03-14T10:49:29;99900.97;;;13.23;48.01
10668;BME280;5382;42.136;24.796;2023-03-14T10:52:01;99891.75;;;13.80;48.14
10668;BME280;5382;42.136;24.796;2023-03-14T10:54:30;99897.66;;;14.45;44.14
10668;BME280;5382;42.136;24.796;2023-03-14T10:57:00;99881.25;;;15.19;42.02
10668;BME280;5382;42.136;24.796;2023-03-14T10:59:29;99887.28;;;15.51;41.33
10668;BME280;5382;42.136;24.796;2023-03-14T11:02:04;99882.34;;;15.65;41.03
10668;BME280;5382;42.136;24.796;2023-03-14T11:04:50;99864.13;;;16.08;40.72
10668;BME280;5382;42.136;24.796;2023-03-14T11:07:24;99865.75;;;17.19;39.39
10668;BME280;5382;42.136;24.796;2023-03-14T11:09:56;99849.59;;;17.29;37.06
10668;BME280;5382;42.136;24.796;2023-03-14T11:12:41;99818.50;;;17.28;38.29
10668;BME280;5382;42.136;24.796;2023-03-14T11:15:17;99826.75;;;18.72;36.57
10668;BME280;5382;42.136;24.796;2023-03-14T11:17:54;99831.66;;;19.83;34.40
10668;BME280;5382;42.136;24.796;2023-03-14T11:20:31;99813.91;;;20.13;33.80
10668;BME280;5382;42.136;24.796;2023-03-14T11:23:02;99803.53;;;20.96;32.20
10668;BME280;5382;42.136;24.796;2023-03-14T11:25:38;99796.75;;;21.61;32.23
10668;BME280;5382;42.136;24.796;2023-03-14T11:28:17;99786.53;;;21.71;31.55
10668;BME280;5382;42.136;24.796;2023-03-14T11:30:50;99778.75;;;22.57;30.63
10668;BME280;5382;42.136;24.796;2023-03-14T11:33:22;99766.53;;;22.61;30.66
10668;BME280;5382;42.136;24.796;2023-03-14T11:35:57;99764.25;;;23.01;29.66
10668;BME280;5382;42.136;24.796;2023-03-14T11:38:30;99759.56;;;22.67;29.87
10668;BME280;5382;42.136;24.796;2023-03-14T11:40:59;99760.44;;;21.86;30.52
10668;BME280;5382;42.136;24.796;2023-03-14T11:43:30;99750.59;;;21.93;30.64
10668;BME280;5382;42.136;24.796;2023-03-14T11:46:04;99733.19;;;22.26;31.38
10668;BME280;5382;42.136;24.796;2023-03-14T11:48:38;99723.47;;;22.46;30.88
10668;BME280;5382;42.136;24.796;2023-03-14T11:51:11;99715.09;;;22.05;30.96
10668;BME280;5382;42.136;24.796;2023-03-14T11:53:50;99699.00;;;20.92;31.22
10668;BME280;5382;42.136;24.796;2023-03-14T11:56:25;99705.78;;;21.03;31.34
10668;BME280;5382;42.136;24.796;2023-03-14T11:58:58;99701.66;;;21.30;31.67
10668;BME280;5382;42.136;24.796;2023-03-14T12:01:32;99697.06;;;21.01;32.19
10668;BME280;5382;42.136;24.796;2023-03-14T12:04:07;99677.81;;;20.75;32.21
10668;BME280;5382;42.136;24.796;2023-03-14T12:06:40;99675.63;;;20.55;32.34
10668;BME280;5382;42.136;24.796;2023-03-14T12:09:10;99668.25;;;21.10;31.57
10668;BME280;5382;42.136;24.796;2023-03-14T12:11:40;99656.75;;;20.63;32.94
10668;BME280;5382;42.136;24.796;2023-03-14T12:14:22;99654.97;;;20.94;32.40
10668;BME280;5382;42.136;24.796;2023-03-14T12:16:54;99637.34;;;20.91;33.46
10668;BME280;5382;42.136;24.796;2023-03-14T12:19:29;99628.22;;;21.22;32.83
10668;BME280;5382;42.136;24.796;2023-03-14T12:22:01;99615.72;;;21.59;31.77
10668;BME280;5382;42.136;24.796;2023-03-14T12:24:34;99616.53;;;21.74;31.99
10668;BME280;5382;42.136;24.796;2023-03-14T12:27:04;99605.66;;;22.47;31.54
10668;BME280;5382;42.136;24.796;2023-03-14T12:29:59;99598.91;;;23.20;32.12
10668;BME280;5382;42.136;24.796;2023-03-14T12:32:27;99599.25;;;23.04;30.89
10668;BME280;5382;42.136;24.796;2023-03-14T12:34:54;99589.19;;;22.63;31.00
10668;BME280;5382;42.136;24.796;2023-03-14T12:37:26;99590.16;;;22.83;30.84
10668;BME280;5382;42.136;24.796;2023-03-14T12:40:15;99588.59;;;22.68;30.55
10668;BME280;5382;42.136;24.796;2023-03-14T12:42:56;99580.81;;;22.51;31.08
10668;BME280;5382;42.136;24.796;2023-03-14T12:45:27;99580.75;;;22.73;31.12
10668;BME280;5382;42.136;24.796;2023-03-14T12:48:09;99575.69;;;21.92;30.96
10668;BME280;5382;42.136;24.796;2023-03-14T12:50:44;99571.56;;;21.38;31.58
10668;BME280;5382;42.136;24.796;2023-03-14T12:53:49;99569.44;;;21.91;31.67
10668;BME280;5382;42.136;24.796;2023-03-14T12:56:25;99559.66;;;22.55;30.43
10668;BME280;5382;42.136;24.796;2023-03-14T12:59:05;99550.69;;;23.65;29.56
10668;BME280;5382;42.136;24.796;2023-03-14T13:01:46;99558.59;;;23.12;29.99
10668;BME280;5382;42.136;24.796;2023-03-14T13:04:14;99564.50;;;22.66;30.78